sensor_id;sensor_type;location;lat;lon;timestamp;noise_LAeq;noise_LA_min;noise_LA_max;noise_LA01;noise_LA95
37223;Laerm;28026;48.562;14.440;2023-06-26T00:01:12;37.47;30.89;43.58;;
37223;Laerm;28026;48.562;14.440;2023-06-26T00:03:43;37.27;30.89;42.82;;
37223;Laerm;28026;48.562;14.440;2023-06-26T00:06:14;38.82;30.89;43.34;;
37223;Laerm;28026;48.562;14.440;2023-06-26T00:08:44;37.46;31.68;41.53;;
37223;Laerm;28026;48.562;14.440;2023-06-26T00:11:16;43.13;26.91;58.74;;
37223;Laerm;28026;48.562;14.440;2023-06-26T00:13:48;41.88;34.31;45.60;;
37223;Laerm;28026;48.562;14.440;2023-06-26T00:16:19;37.89;30.89;42.85;;
37223;Laerm;28026;48.562;14.440;2023-06-26T00:18:49;36.98;31.68;40.98;;
37223;Laerm;28026;48.562;14.440;2023-06-26T00:21:20;38.16;32.93;43.54;;
37223;Laerm;28026;48.562;14.440;2023-06-26T00:23:51;40.33;32.93;49.52;;
37223;Laerm;28026;48.562;14.440;2023-06-26T00:26:22;38.73;32.35;43.94;;
37223;Laerm;28026;48.562;14.440;2023-06-26T00:28:54;37.08;31.68;40.43;;
37223;Laerm;28026;48.562;14.440;2023-06-26T00:31:25;39.84;32.35;44.51;;
37223;Laerm;28026;48.562;14.440;2023-06-26T00:33:56;37.28;31.68;40.80;;
37223;Laerm;28026;48.562;14.440;2023-06-26T00:36:27;36.97;29.92;39.81;;
37223;Laerm;28026;48.562;14.440;2023-06-26T00:38:57;37.15;32.35;42.35;;
37223;Laerm;28026;48.562;14.440;2023-06-26T00:41:29;40.21;32.35;45.51;;
37223;Laerm;28026;48.562;14.440;2023-06-26T00:44:00;37.63;30.89;42.09;;
37223;Laerm;28026;48.562;14.440;2023-06-26T00:46:31;40.16;32.35;50.57;;
37223;Laerm;28026;48.562;14.440;2023-06-26T00:49:03;37.16;31.68;41.82;;
37223;Laerm;28026;48.562;14.440;2023-06-26T00:51:35;37.58;32.35;43.80;;
37223;Laerm;28026;48.562;14.440;2023-06-26T00:54:06;40.31;32.93;46.95;;
37223;Laerm;28026;48.562;14.440;2023-06-26T00:56:37;37.57;30.89;43.68;;
37223;Laerm;28026;48.562;14.440;2023-06-26T00:59:08;37.16;32.35;41.06;;
37223;Laerm;28026;48.562;14.440;2023-06-26T01:01:39;36.63;31.68;39.58;;
37223;Laerm;28026;48.562;14.440;2023-06-26T01:04:10;36.78;30.89;43.09;;
37223;Laerm;28026;48.562;14.440;2023-06-26T01:06:49;37.00;31.68;40.33;;
37223;Laerm;28026;48.562;14.440;2023-06-26T01:09:22;37.05;32.35;40.27;;
37223;Laerm;28026;48.562;14.440;2023-06-26T01:11:54;37.18;32.35;40.53;;
37223;Laerm;28026;48.562;14.440;2023-06-26T01:14:25;37.39;32.35;42.29;;
37223;Laerm;28026;48.562;14.440;2023-06-26T01:16:56;40.56;33.90;44.47;;
37223;Laerm;28026;48.562;14.440;2023-06-26T01:19:31;38.87;32.93;43.58;;
37223;Laerm;28026;48.562;14.440;2023-06-26T01:25:20;36.86;29.92;41.38;;
37223;Laerm;28026;48.562;14.440;2023-06-26T01:27:54;36.89;30.89;40.80;;
37223;Laerm;28026;48.562;14.440;2023-06-26T01:30:25;37.07;30.89;40.33;;
37223;Laerm;28026;48.562;14.440;2023-06-26T01:32:56;38.80;32.35;44.65;;
37223;Laerm;28026;48.562;14.440;2023-06-26T01:35:27;37.04;31.68;43.99;;
37223;Laerm;28026;48.562;14.440;2023-06-26T01:38:16;37.57;32.93;44.80;;
37223;Laerm;28026;48.562;14.440;2023-06-26T01:40:48;37.64;32.35;40.71;;
37223;Laerm;28026;48.562;14.440;2023-06-26T01:46:58;40.68;34.69;44.11;;
37223;Laerm;28026;48.562;14.440;2023-06-26T01:52:41;39.15;32.93;43.72;;
37223;Laerm;28026;48.562;14.440;2023-06-26T01:58:06;40.53;32.93;57.59;;
37223;Laerm;28026;48.562;14.440;2023-06-26T02:00:38;37.84;31.68;50.15;;
37223;Laerm;28026;48.562;14.440;2023-06-26T02:03:09;38.21;32.35;51.77;;
37223;Laerm;28026;48.562;14.440;2023-06-26T02:05:39;37.33;32.35;40.98;;
37223;Laerm;28026;48.562;14.440;2023-06-26T02:08:14;37.26;32.35;40.53;;
37223;Laerm;28026;48.562;14.440;2023-06-26T02:10:46;41.47;32.93;55.11;;
37223;Laerm;28026;48.562;14.440;2023-06-26T02:13:16;39.57;32.35;45.99;;
37223;Laerm;28026;48.562;14.440;2023-06-26T02:15:48;38.87;32.00;49.81;;
37223;Laerm;28026;48.562;14.440;2023-06-26T02:18:19;40.66;33.44;52.29;;
37223;Laerm;28026;48.562;14.440;2023-06-26T02:20:51;38.77;33.90;50.20;;
37223;Laerm;28026;48.562;14.440;2023-06-26T02:23:22;38.34;32.93;45.48;;
37223;Laerm;28026;48.562;14.440;2023-06-26T02:25:53;37.65;32.35;41.22;;
37223;Laerm;28026;48.562;14.440;2023-06-26T02:28:24;39.77;31.68;52.78;;
37223;Laerm;28026;48.562;14.440;2023-06-26T02:30:54;40.15;33.90;51.68;;
37223;Laerm;28026;48.562;14.440;2023-06-26T02:33:25;41.74;33.90;50.04;;
37223;Laerm;28026;48.562;14.440;2023-06-26T02:35:56;40.45;34.69;46.80;;
37223;Laerm;28026;48.562;14.440;2023-06-26T02:38:27;39.67;35.04;50.63;;
37223;Laerm;28026;48.562;14.440;2023-06-26T02:40:57;41.89;37.70;47.24;;
37223;Laerm;28026;48.562;14.440;2023-06-26T02:43:28;39.77;33.90;46.73;;
37223;Laerm;28026;48.562;14.440;2023-06-26T02:45:59;39.37;33.90;47.44;;
37223;Laerm;28026;48.562;14.440;2023-06-26T02:48:30;39.69;33.90;49.55;;
37223;Laerm;28026;48.562;14.440;2023-06-26T02:51:00;42.20;34.69;49.41;;
37223;Laerm;28026;48.562;14.440;2023-06-26T02:53:31;42.92;36.20;59.05;;
37223;Laerm;28026;48.562;14.440;2023-06-26T02:56:02;41.48;35.66;48.87;;
37223;Laerm;28026;48.562;14.440;2023-06-26T02:58:33;39.94;34.69;49.39;;
37223;Laerm;28026;48.562;14.440;2023-06-26T03:01:04;41.99;37.32;50.80;;
37223;Laerm;28026;48.562;14.440;2023-06-26T03:03:35;40.16;35.36;53.52;;
37223;Laerm;28026;48.562;14.440;2023-06-26T03:06:10;41.30;35.66;54.99;;
37223;Laerm;28026;48.562;14.440;2023-06-26T03:08:41;41.60;35.04;53.25;;
37223;Laerm;28026;48.562;14.440;2023-06-26T03:11:12;42.82;36.69;52.22;;
37223;Laerm;28026;48.562;14.440;2023-06-26T03:13:43;44.07;36.77;58.31;;
37223;Laerm;28026;48.562;14.440;2023-06-26T03:16:14;42.44;34.69;59.13;;
37223;Laerm;28026;48.562;14.440;2023-06-26T03:18:45;40.75;35.94;52.15;;
37223;Laerm;28026;48.562;14.440;2023-06-26T03:21:17;42.86;38.67;53.08;;
37223;Laerm;28026;48.562;14.440;2023-06-26T03:23:48;43.30;38.37;55.34;;
37223;Laerm;28026;48.562;14.440;2023-06-26T03:26:18;41.72;38.37;52.90;;
37223;Laerm;28026;48.562;14.440;2023-06-26T03:28:49;41.53;38.37;48.31;;
37223;Laerm;28026;48.562;14.440;2023-06-26T03:31:20;41.32;36.91;52.02;;
37223;Laerm;28026;48.562;14.440;2023-06-26T03:33:51;42.88;35.66;56.66;;
37223;Laerm;28026;48.562;14.440;2023-06-26T03:36:22;41.98;35.94;51.97;;
37223;Laerm;28026;48.562;14.440;2023-06-26T03:38:52;41.77;34.69;51.51;;
37223;Laerm;28026;48.562;14.440;2023-06-26T03:41:27;39.72;33.90;50.73;;
37223;Laerm;28026;48.562;14.440;2023-06-26T03:43:58;42.37;36.45;49.00;;
37223;Laerm;28026;48.562;14.440;2023-06-26T03:46:30;41.85;36.10;48.81;;
37223;Laerm;28026;48.562;14.440;2023-06-26T03:49:01;41.34;36.69;50.44;;
37223;Laerm;28026;48.562;14.440;2023-06-26T03:51:32;43.49;38.32;56.48;;
37223;Laerm;28026;48.562;14.440;2023-06-26T03:54:03;43.25;37.70;51.72;;
37223;Laerm;28026;48.562;14.440;2023-06-26T03:56:34;41.41;35.94;46.69;;
37223;Laerm;28026;48.562;14.440;2023-06-26T03:59:04;39.32;35.04;46.76;;
37223;Laerm;28026;48.562;14.440;2023-06-26T04:01:37;39.93;35.04;46.15;;
37223;Laerm;28026;48.562;14.440;2023-06-26T04:04:08;42.56;36.45;53.31;;
37223;Laerm;28026;48.562;14.440;2023-06-26T04:06:39;42.38;37.12;61.24;;
37223;Laerm;28026;48.562;14.440;2023-06-26T04:09:10;42.11;35.36;53.96;;
37223;Laerm;28026;48.562;14.440;2023-06-26T04:11:41;42.80;35.66;57.86;;
37223;Laerm;28026;48.562;14.440;2023-06-26T04:14:11;43.12;35.94;57.05;;
37223;Laerm;28026;48.562;14.440;2023-06-26T04:16:43;42.16;37.88;49.89;;
37223;Laerm;28026;48.562;14.440;2023-06-26T04:19:14;41.67;37.32;50.54;;
37223;Laerm;28026;48.562;14.440;2023-06-26T04:21:45;40.65;36.91;46.35;;
37223;Laerm;28026;48.562;14.440;2023-06-26T04:24:16;39.75;35.66;46.33;;
37223;Laerm;28026;48.562;14.440;2023-06-26T04:26:47;43.77;38.21;53.29;;
37223;Laerm;28026;48.562;14.440;2023-06-26T04:29:18;44.27;39.08;56.31;;
37223;Laerm;28026;48.562;14.440;2023-06-26T04:31:49;43.22;38.52;50.71;;
37223;Laerm;28026;48.562;14.440;2023-06-26T04:34:20;41.22;35.86;63.96;;
37223;Laerm;28026;48.562;14.440;2023-06-26T04:36:51;42.65;37.88;50.51;;
37223;Laerm;28026;48.562;14.440;2023-06-26T04:39:22;42.50;38.05;50.65;;
37223;Laerm;28026;48.562;14.440;2023-06-26T04:41:53;42.46;38.37;50.91;;
37223;Laerm;28026;48.562;14.440;2023-06-26T04:44:23;41.60;37.52;45.42;;
37223;Laerm;28026;48.562;14.440;2023-06-26T04:46:54;40.94;36.45;51.53;;
37223;Laerm;28026;48.562;14.440;2023-06-26T04:49:25;44.50;38.52;56.10;;
37223;Laerm;28026;48.562;14.440;2023-06-26T04:51:58;42.83;38.52;50.29;;
37223;Laerm;28026;48.562;14.440;2023-06-26T04:54:30;43.01;37.52;53.13;;
37223;Laerm;28026;48.562;14.440;2023-06-26T04:57:01;42.23;37.70;50.28;;
37223;Laerm;28026;48.562;14.440;2023-06-26T04:59:32;41.58;35.94;57.06;;
37223;Laerm;28026;48.562;14.440;2023-06-26T05:02:03;42.06;35.66;53.59;;
37223;Laerm;28026;48.562;14.440;2023-06-26T05:04:35;45.30;36.69;67.51;;
37223;Laerm;28026;48.562;14.440;2023-06-26T05:07:06;43.54;39.92;50.00;;
37223;Laerm;28026;48.562;14.440;2023-06-26T05:09:37;42.63;37.88;51.78;;
37223;Laerm;28026;48.562;14.440;2023-06-26T05:12:07;41.83;37.52;47.86;;
37223;Laerm;28026;48.562;14.440;2023-06-26T05:14:38;42.20;38.52;58.21;;
37223;Laerm;28026;48.562;14.440;2023-06-26T05:17:09;43.58;38.52;55.99;;
37223;Laerm;28026;48.562;14.440;2023-06-26T05:19:40;42.77;38.21;58.48;;
37223;Laerm;28026;48.562;14.440;2023-06-26T05:22:13;42.30;36.91;50.11;;
37223;Laerm;28026;48.562;14.440;2023-06-26T05:24:46;41.73;35.36;49.90;;
37223;Laerm;28026;48.562;14.440;2023-06-26T05:27:18;40.07;35.04;51.06;;
37223;Laerm;28026;48.562;14.440;2023-06-26T05:29:52;42.30;37.12;52.28;;
37223;Laerm;28026;48.562;14.440;2023-06-26T05:32:23;43.05;38.05;49.40;;
37223;Laerm;28026;48.562;14.440;2023-06-26T05:34:55;42.24;37.70;48.95;;
37223;Laerm;28026;48.562;14.440;2023-06-26T05:37:27;41.95;35.66;58.48;;
37223;Laerm;28026;48.562;14.440;2023-06-26T05:39:59;42.23;35.94;54.94;;
37223;Laerm;28026;48.562;14.440;2023-06-26T05:42:30;42.73;38.21;50.60;;
37223;Laerm;28026;48.562;14.440;2023-06-26T05:45:01;42.83;38.52;48.39;;
37223;Laerm;28026;48.562;14.440;2023-06-26T05:47:32;40.11;35.04;46.87;;
37223;Laerm;28026;48.562;14.440;2023-06-26T05:50:05;39.38;35.66;48.25;;
37223;Laerm;28026;48.562;14.440;2023-06-26T05:52:36;42.39;36.69;52.40;;
37223;Laerm;28026;48.562;14.440;2023-06-26T05:55:10;41.23;36.45;55.38;;
37223;Laerm;28026;48.562;14.440;2023-06-26T05:57:42;39.81;35.66;46.89;;
37223;Laerm;28026;48.562;14.440;2023-06-26T06:00:14;40.98;36.20;60.73;;
37223;Laerm;28026;48.562;14.440;2023-06-26T06:02:45;42.59;37.12;66.66;;
37223;Laerm;28026;48.562;14.440;2023-06-26T06:05:16;45.23;36.91;57.11;;
37223;Laerm;28026;48.562;14.440;2023-06-26T06:07:47;43.04;37.88;57.82;;
37223;Laerm;28026;48.562;14.440;2023-06-26T06:10:18;40.44;36.20;49.00;;
37223;Laerm;28026;48.562;14.440;2023-06-26T06:12:48;41.54;35.94;57.97;;
37223;Laerm;28026;48.562;14.440;2023-06-26T06:15:19;40.99;36.20;52.63;;
37223;Laerm;28026;48.562;14.440;2023-06-26T06:17:50;40.71;36.45;52.84;;
37223;Laerm;28026;48.562;14.440;2023-06-26T06:20:21;40.52;35.66;52.51;;
37223;Laerm;28026;48.562;14.440;2023-06-26T06:22:52;42.96;38.81;51.72;;
37223;Laerm;28026;48.562;14.440;2023-06-26T06:25:23;43.66;38.21;51.62;;
37223;Laerm;28026;48.562;14.440;2023-06-26T06:27:54;42.52;36.69;54.02;;
37223;Laerm;28026;48.562;14.440;2023-06-26T06:30:25;42.05;36.69;52.39;;
37223;Laerm;28026;48.562;14.440;2023-06-26T06:32:55;40.58;35.94;58.25;;
37223;Laerm;28026;48.562;14.440;2023-06-26T06:35:26;41.24;36.69;62.53;;
37223;Laerm;28026;48.562;14.440;2023-06-26T06:37:57;43.18;36.69;61.89;;
37223;Laerm;28026;48.562;14.440;2023-06-26T06:40:29;42.69;38.21;51.28;;
37223;Laerm;28026;48.562;14.440;2023-06-26T06:43:00;42.28;38.37;51.97;;
37223;Laerm;28026;48.562;14.440;2023-06-26T06:45:31;42.38;37.88;53.22;;
37223;Laerm;28026;48.562;14.440;2023-06-26T06:48:02;42.97;38.81;53.93;;
37223;Laerm;28026;48.562;14.440;2023-06-26T06:50:33;42.46;38.52;53.56;;
37223;Laerm;28026;48.562;14.440;2023-06-26T06:53:03;43.44;37.52;58.01;;
37223;Laerm;28026;48.562;14.440;2023-06-26T06:55:34;42.84;38.67;51.82;;
37223;Laerm;28026;48.562;14.440;2023-06-26T06:58:05;43.98;37.88;60.82;;
37223;Laerm;28026;48.562;14.440;2023-06-26T07:00:36;42.78;38.05;53.94;;
37223;Laerm;28026;48.562;14.440;2023-06-26T07:03:06;43.02;37.52;59.70;;
37223;Laerm;28026;48.562;14.440;2023-06-26T07:05:37;42.51;36.45;54.25;;
37223;Laerm;28026;48.562;14.440;2023-06-26T07:08:08;46.54;38.95;69.30;;
37223;Laerm;28026;48.562;14.440;2023-06-26T07:10:39;43.83;38.95;58.15;;
37223;Laerm;28026;48.562;14.440;2023-06-26T07:13:10;46.71;37.52;70.81;;
37223;Laerm;28026;48.562;14.440;2023-06-26T07:15:40;49.96;37.32;67.07;;
37223;Laerm;28026;48.562;14.440;2023-06-26T07:18:11;48.61;37.12;74.35;;
37223;Laerm;28026;48.562;14.440;2023-06-26T07:20:42;46.28;38.81;60.00;;
37223;Laerm;28026;48.562;14.440;2023-06-26T07:23:13;46.48;41.82;66.39;;
37223;Laerm;28026;48.562;14.440;2023-06-26T07:25:44;47.97;39.08;69.74;;
37223;Laerm;28026;48.562;14.440;2023-06-26T07:28:15;50.40;37.70;74.78;;
37223;Laerm;28026;48.562;14.440;2023-06-26T07:30:45;51.30;38.52;78.28;;
37223;Laerm;28026;48.562;14.440;2023-06-26T07:33:16;50.07;39.35;73.54;;
37223;Laerm;28026;48.562;14.440;2023-06-26T07:35:47;51.10;37.12;77.14;;
37223;Laerm;28026;48.562;14.440;2023-06-26T07:38:18;47.26;35.36;72.51;;
37223;Laerm;28026;48.562;14.440;2023-06-26T07:40:49;46.67;38.67;73.73;;
37223;Laerm;28026;48.562;14.440;2023-06-26T07:43:21;45.46;37.32;69.55;;
37223;Laerm;28026;48.562;14.440;2023-06-26T07:45:53;58.44;37.52;83.80;;
37223;Laerm;28026;48.562;14.440;2023-06-26T07:48:25;57.74;38.21;81.75;;
37223;Laerm;28026;48.562;14.440;2023-06-26T07:50:56;49.69;36.91;72.99;;
37223;Laerm;28026;48.562;14.440;2023-06-26T07:53:26;48.86;36.69;71.75;;
37223;Laerm;28026;48.562;14.440;2023-06-26T07:55:57;47.52;37.52;75.56;;
37223;Laerm;28026;48.562;14.440;2023-06-26T07:58:28;48.68;38.95;73.35;;
37223;Laerm;28026;48.562;14.440;2023-06-26T08:00:59;53.88;37.32;77.25;;
37223;Laerm;28026;48.562;14.440;2023-06-26T08:03:29;43.85;36.45;68.77;;
37223;Laerm;28026;48.562;14.440;2023-06-26T08:06:00;43.34;37.12;62.04;;
37223;Laerm;28026;48.562;14.440;2023-06-26T08:08:31;42.75;37.87;63.76;;
37223;Laerm;28026;48.562;14.440;2023-06-26T08:11:02;42.16;37.32;60.55;;
37223;Laerm;28026;48.562;14.440;2023-06-26T08:13:33;48.77;36.69;75.51;;
37223;Laerm;28026;48.562;14.440;2023-06-26T08:16:04;60.99;36.69;84.33;;
37223;Laerm;28026;48.562;14.440;2023-06-26T08:18:35;41.09;37.32;53.04;;
37223;Laerm;28026;48.562;14.440;2023-06-26T08:21:05;41.51;37.70;56.05;;
37223;Laerm;28026;48.562;14.440;2023-06-26T08:23:36;41.88;37.52;57.00;;
37223;Laerm;28026;48.562;14.440;2023-06-26T08:26:07;42.24;37.32;57.98;;
37223;Laerm;28026;48.562;14.440;2023-06-26T08:28:38;42.18;36.91;55.44;;
37223;Laerm;28026;48.562;14.440;2023-06-26T08:31:09;42.60;38.95;65.43;;
37223;Laerm;28026;48.562;14.440;2023-06-26T08:33:40;42.84;39.21;57.35;;
37223;Laerm;28026;48.562;14.440;2023-06-26T08:36:10;43.98;39.34;53.55;;
37223;Laerm;28026;48.562;14.440;2023-06-26T08:38:41;43.49;38.21;56.50;;
37223;Laerm;28026;48.562;14.440;2023-06-26T08:41:12;43.42;37.88;52.65;;
37223;Laerm;28026;48.562;14.440;2023-06-26T08:43:43;45.45;39.70;54.34;;
37223;Laerm;28026;48.562;14.440;2023-06-26T08:46:14;43.67;37.88;64.74;;
37223;Laerm;28026;48.562;14.440;2023-06-26T08:48:55;43.23;37.32;56.50;;
37223;Laerm;28026;48.562;14.440;2023-06-26T08:51:28;42.24;36.69;62.67;;
37223;Laerm;28026;48.562;14.440;2023-06-26T08:54:09;41.32;34.34;71.35;;
37223;Laerm;28026;48.562;14.440;2023-06-26T08:56:44;41.98;36.69;64.61;;
37223;Laerm;28026;48.562;14.440;2023-06-26T08:59:16;41.51;35.66;51.17;;
37223;Laerm;28026;48.562;14.440;2023-06-26T09:01:47;41.35;34.69;58.66;;
37223;Laerm;28026;48.562;14.440;2023-06-26T09:04:18;42.23;37.70;53.25;;
37223;Laerm;28026;48.562;14.440;2023-06-26T09:06:49;41.09;36.91;51.84;;
37223;Laerm;28026;48.562;14.440;2023-06-26T09:09:20;44.75;37.88;69.57;;
37223;Laerm;28026;48.562;14.440;2023-06-26T09:11:51;41.97;38.52;53.03;;
37223;Laerm;28026;48.562;14.440;2023-06-26T09:14:23;42.10;38.37;49.03;;
37223;Laerm;28026;48.562;14.440;2023-06-26T09:16:54;43.23;38.21;56.87;;
37223;Laerm;28026;48.562;14.440;2023-06-26T09:19:26;42.74;38.74;58.94;;
37223;Laerm;28026;48.562;14.440;2023-06-26T09:21:57;44.23;38.81;55.48;;
37223;Laerm;28026;48.562;14.440;2023-06-26T09:24:28;42.81;37.12;64.75;;
37223;Laerm;28026;48.562;14.440;2023-06-26T09:27:01;44.73;38.21;73.99;;
37223;Laerm;28026;48.562;14.440;2023-06-26T09:29:32;45.99;37.87;71.83;;
37223;Laerm;28026;48.562;14.440;2023-06-26T09:32:04;43.28;37.52;62.77;;
37223;Laerm;28026;48.562;14.440;2023-06-26T09:34:35;48.73;37.88;72.36;;
37223;Laerm;28026;48.562;14.440;2023-06-26T09:37:06;46.05;36.20;72.81;;
37223;Laerm;28026;48.562;14.440;2023-06-26T09:39:36;51.27;37.52;73.93;;
37223;Laerm;28026;48.562;14.440;2023-06-26T09:42:07;50.93;35.66;80.83;;
37223;Laerm;28026;48.562;14.440;2023-06-26T09:44:44;44.14;36.20;67.95;;
37223;Laerm;28026;48.562;14.440;2023-06-26T09:47:17;45.07;37.70;65.47;;
37223;Laerm;28026;48.562;14.440;2023-06-26T09:49:48;49.31;38.21;76.84;;
37223;Laerm;28026;48.562;14.440;2023-06-26T09:52:19;44.48;36.69;65.07;;
37223;Laerm;28026;48.562;14.440;2023-06-26T09:54:50;53.50;37.32;79.47;;
37223;Laerm;28026;48.562;14.440;2023-06-26T09:57:21;45.94;36.10;66.80;;
37223;Laerm;28026;48.562;14.440;2023-06-26T09:59:52;46.51;39.46;64.79;;
37223;Laerm;28026;48.562;14.440;2023-06-26T10:02:23;45.89;40.23;57.99;;
37223;Laerm;28026;48.562;14.440;2023-06-26T10:04:54;42.44;38.05;53.77;;
37223;Laerm;28026;48.562;14.440;2023-06-26T10:07:25;42.99;37.88;53.00;;
37223;Laerm;28026;48.562;14.440;2023-06-26T10:09:57;43.39;38.05;60.01;;
37223;Laerm;28026;48.562;14.440;2023-06-26T10:12:30;43.55;39.92;64.16;;
37223;Laerm;28026;48.562;14.440;2023-06-26T10:15:02;49.76;38.95;77.35;;
37223;Laerm;28026;48.562;14.440;2023-06-26T10:17:37;45.16;37.32;61.44;;
37223;Laerm;28026;48.562;14.440;2023-06-26T10:20:10;43.79;39.21;58.78;;
37223;Laerm;28026;48.562;14.440;2023-06-26T10:22:45;44.08;38.05;55.48;;
37223;Laerm;28026;48.562;14.440;2023-06-26T10:25:19;45.50;39.46;68.16;;
37223;Laerm;28026;48.562;14.440;2023-06-26T10:27:57;43.40;35.94;53.13;;
37223;Laerm;28026;48.562;14.440;2023-06-26T10:30:34;44.38;37.52;66.70;;
37223;Laerm;28026;48.562;14.440;2023-06-26T10:33:07;48.68;35.36;76.17;;
37223;Laerm;28026;48.562;14.440;2023-06-26T10:35:45;44.50;34.69;72.63;;
37223;Laerm;28026;48.562;14.440;2023-06-26T10:38:16;48.80;36.20;71.72;;
37223;Laerm;28026;48.562;14.440;2023-06-26T10:40:48;45.93;35.36;72.92;;
37223;Laerm;28026;48.562;14.440;2023-06-26T10:43:30;41.82;36.20;53.10;;
37223;Laerm;28026;48.562;14.440;2023-06-26T10:46:01;41.86;36.69;53.58;;
37223;Laerm;28026;48.562;14.440;2023-06-26T10:48:32;43.89;36.45;68.21;;
37223;Laerm;28026;48.562;14.440;2023-06-26T10:51:24;41.18;36.20;61.87;;
37223;Laerm;28026;48.562;14.440;2023-06-26T10:53:56;40.57;35.36;58.55;;
37223;Laerm;28026;48.562;14.440;2023-06-26T10:56:49;42.57;36.69;62.31;;
37223;Laerm;28026;48.562;14.440;2023-06-26T10:59:24;43.43;36.91;65.97;;
37223;Laerm;28026;48.562;14.440;2023-06-26T11:01:59;47.24;36.45;71.23;;
37223;Laerm;28026;48.562;14.440;2023-06-26T11:04:44;44.08;37.88;63.94;;
37223;Laerm;28026;48.562;14.440;2023-06-26T11:07:23;44.98;38.02;68.02;;
37223;Laerm;28026;48.562;14.440;2023-06-26T11:10:00;42.48;35.94;59.20;;
37223;Laerm;28026;48.562;14.440;2023-06-26T11:12:43;45.67;37.12;74.36;;
37223;Laerm;28026;48.562;14.440;2023-06-26T11:15:19;45.85;37.52;71.58;;
37223;Laerm;28026;48.562;14.440;2023-06-26T11:17:50;41.33;37.32;52.33;;
37223;Laerm;28026;48.562;14.440;2023-06-26T11:20:22;44.65;38.05;68.91;;
37223;Laerm;28026;48.562;14.440;2023-06-26T11:22:54;46.25;38.05;73.69;;
37223;Laerm;28026;48.562;14.440;2023-06-26T11:25:26;48.90;38.21;75.71;;
37223;Laerm;28026;48.562;14.440;2023-06-26T11:27:57;51.91;39.81;82.84;;
37223;Laerm;28026;48.562;14.440;2023-06-26T11:30:28;47.15;39.21;67.80;;
37223;Laerm;28026;48.562;14.440;2023-06-26T11:33:09;46.55;38.81;74.93;;
37223;Laerm;28026;48.562;14.440;2023-06-26T11:35:41;43.17;38.81;58.26;;
37223;Laerm;28026;48.562;14.440;2023-06-26T11:38:12;46.87;37.52;71.78;;
37223;Laerm;28026;48.562;14.440;2023-06-26T11:40:43;57.42;39.58;87.01;;
37223;Laerm;28026;48.562;14.440;2023-06-26T11:43:14;57.09;39.92;83.24;;
37223;Laerm;28026;48.562;14.440;2023-06-26T11:45:49;57.13;42.03;74.81;;
37223;Laerm;28026;48.562;14.440;2023-06-26T11:48:20;57.14;44.03;70.16;;
37223;Laerm;28026;48.562;14.440;2023-06-26T11:50:51;53.61;43.24;69.15;;
37223;Laerm;28026;48.562;14.440;2023-06-26T11:53:22;57.13;45.27;66.37;;
37223;Laerm;28026;48.562;14.440;2023-06-26T11:55:53;53.16;43.34;70.89;;
37223;Laerm;28026;48.562;14.440;2023-06-26T11:58:23;57.35;44.90;77.70;;
37223;Laerm;28026;48.562;14.440;2023-06-26T12:00:54;54.47;45.11;77.72;;
37223;Laerm;28026;48.562;14.440;2023-06-26T12:03:25;54.41;47.35;75.63;;
37223;Laerm;28026;48.562;14.440;2023-06-26T12:05:56;57.60;48.29;68.64;;
37223;Laerm;28026;48.562;14.440;2023-06-26T12:08:27;53.96;43.58;67.31;;
37223;Laerm;28026;48.562;14.440;2023-06-26T12:10:58;54.07;44.76;64.62;;
37223;Laerm;28026;48.562;14.440;2023-06-26T12:13:29;56.01;46.35;67.07;;
37223;Laerm;28026;48.562;14.440;2023-06-26T12:16:00;52.84;44.86;61.73;;
37223;Laerm;28026;48.562;14.440;2023-06-26T12:18:35;54.83;43.94;75.39;;
37223;Laerm;28026;48.562;14.440;2023-06-26T12:21:06;47.77;41.14;64.22;;
37223;Laerm;28026;48.562;14.440;2023-06-26T12:23:40;49.00;40.13;72.43;;
37223;Laerm;28026;48.562;14.440;2023-06-26T12:26:21;53.85;38.74;81.59;;
37223;Laerm;28026;48.562;14.440;2023-06-26T12:28:52;45.60;39.21;64.69;;
37223;Laerm;28026;48.562;14.440;2023-06-26T12:31:23;45.17;39.70;67.32;;
37223;Laerm;28026;48.562;14.440;2023-06-26T12:33:54;47.14;38.67;69.02;;
37223;Laerm;28026;48.562;14.440;2023-06-26T12:36:24;43.22;38.67;65.38;;
37223;Laerm;28026;48.562;14.440;2023-06-26T12:38:55;43.35;40.13;54.00;;
37223;Laerm;28026;48.562;14.440;2023-06-26T12:41:26;44.84;39.34;68.08;;
37223;Laerm;28026;48.562;14.440;2023-06-26T12:43:57;50.56;39.46;75.80;;
37223;Laerm;28026;48.562;14.440;2023-06-26T12:46:35;47.15;38.95;70.61;;
37223;Laerm;28026;48.562;14.440;2023-06-26T12:49:06;48.32;38.67;73.27;;
37223;Laerm;28026;48.562;14.440;2023-06-26T12:51:36;54.85;37.70;83.96;;
37223;Laerm;28026;48.562;14.440;2023-06-26T12:54:07;60.53;39.08;86.46;;
37223;Laerm;28026;48.562;14.440;2023-06-26T12:56:38;58.75;38.81;84.38;;
37223;Laerm;28026;48.562;14.440;2023-06-26T12:59:09;52.56;39.08;77.78;;
37223;Laerm;28026;48.562;14.440;2023-06-26T13:01:39;60.03;40.53;82.60;;
37223;Laerm;28026;48.562;14.440;2023-06-26T13:04:10;66.65;40.89;95.70;;
37223;Laerm;28026;48.562;14.440;2023-06-26T13:06:41;60.69;39.81;84.49;;
37223;Laerm;28026;48.562;14.440;2023-06-26T13:09:12;57.68;39.81;85.79;;
37223;Laerm;28026;48.562;14.440;2023-06-26T13:11:43;56.58;39.21;82.00;;
37223;Laerm;28026;48.562;14.440;2023-06-26T13:14:14;61.93;40.71;85.88;;
37223;Laerm;28026;48.562;14.440;2023-06-26T13:16:45;69.23;40.13;96.37;;
37223;Laerm;28026;48.562;14.440;2023-06-26T13:19:16;61.95;38.05;89.72;;
37223;Laerm;28026;48.562;14.440;2023-06-26T13:21:47;68.54;38.52;93.82;;
37223;Laerm;28026;48.562;14.440;2023-06-26T13:24:17;66.35;40.33;94.50;;
37223;Laerm;28026;48.562;14.440;2023-06-26T13:26:48;64.36;38.81;88.66;;
37223;Laerm;28026;48.562;14.440;2023-06-26T13:29:19;62.31;39.46;86.04;;
37223;Laerm;28026;48.562;14.440;2023-06-26T13:31:49;58.10;39.81;82.46;;
37223;Laerm;28026;48.562;14.440;2023-06-26T13:34:22;67.24;38.95;94.88;;
37223;Laerm;28026;48.562;14.440;2023-06-26T13:36:58;68.24;38.37;92.21;;
37223;Laerm;28026;48.562;14.440;2023-06-26T13:39:30;72.23;40.33;101.77;;
37223;Laerm;28026;48.562;14.440;2023-06-26T13:42:02;61.88;39.21;84.92;;
37223;Laerm;28026;48.562;14.440;2023-06-26T13:44:32;59.74;38.05;84.48;;
37223;Laerm;28026;48.562;14.440;2023-06-26T13:47:03;58.73;38.05;83.77;;
37223;Laerm;28026;48.562;14.440;2023-06-26T13:49:34;67.76;38.21;95.12;;
37223;Laerm;28026;48.562;14.440;2023-06-26T13:52:06;67.02;39.58;90.10;;
37223;Laerm;28026;48.562;14.440;2023-06-26T13:54:38;70.92;40.13;96.84;;
37223;Laerm;28026;48.562;14.440;2023-06-26T13:57:10;67.06;40.23;90.82;;
37223;Laerm;28026;48.562;14.440;2023-06-26T13:59:41;57.96;40.33;87.72;;
37223;Laerm;28026;48.562;14.440;2023-06-26T14:02:12;52.67;38.67;76.13;;
37223;Laerm;28026;48.562;14.440;2023-06-26T14:04:42;58.00;38.21;85.59;;
37223;Laerm;28026;48.562;14.440;2023-06-26T14:07:13;74.71;41.14;102.27;;
37223;Laerm;28026;48.562;14.440;2023-06-26T14:09:44;72.40;41.14;95.50;;